Time;durP1;ratioP1;P1;durP2;ratioP2;P2;SDS_P1;SDS_P2;PMS_P1;PMS_P2;Temp;Humidity;BMP_temperature;BMP_pressure;BME280_temperature;BME280_humidity;BME280_pressure;Samples;Min_cycle;Max_cycle;Signal;HPM_P1;HPM_P2
2021/04/30 00:00:21;;;;;;;;;;;;;;;;;;5086591;28;19924;-65
2021/04/30 00:02:47;;;;;;;;;;;;;;;;;;5091720;28;19997;-66
2021/04/30 00:05:14;;;;;;;;;;;;;;;;;;5084611;28;20384;-66
2021/04/30 00:07:40;;;;;;;;;;;;;;;;;;5084954;28;20356;-67
2021/04/30 00:10:07;;;;;;;;;;;;;;;;;;5088232;28;20082;-65
2021/04/30 00:12:33;;;;;;;;;;;;;;;;;;5088419;28;19932;-66
2021/04/30 00:15:01;;;;;;;;;;;;;;;;;;5086230;28;19928;-66
2021/04/30 00:17:27;;;;;;;;;;;;;;;;;;5083644;28;19925;-67
2021/04/30 00:19:54;;;;;;;;;;;;;;;;;;5082597;28;20366;-66
2021/04/30 00:22:20;;;;;;;;;;;;;;;;;;5085529;28;20072;-68
2021/04/30 00:24:47;;;;;;;;;;;;;;;;;;5086132;28;19935;-67
2021/04/30 00:27:13;;;;;;;;;;;;;;;;;;5084202;28;19924;-72
2021/04/30 00:29:41;;;;;;;;;;;;;;;;;;5087334;28;20259;-67
2021/04/30 00:32:07;;;;;;;;;;;;;;;;;;5086574;28;19924;-67
2021/04/30 00:34:34;;;;;;;;;;;;;;;;;;5085883;28;19999;-68
2021/04/30 00:37:00;;;;;;;;;;;;;;;;;;5086002;28;20447;-67
2021/04/30 00:39:27;;;;;;;;;;;;;;;;;;5088659;28;20066;-67
2021/04/30 00:41:53;;;;;;;;;;;;;;;;;;5081064;28;20003;-71
2021/04/30 00:44:20;;;;;;;;;;;;;;;;;;5083878;28;20077;-67
2021/04/30 00:46:46;;;;;;;;;;;;;;;;;;5084047;28;20063;-68
2021/04/30 00:49:13;;;;;;;;;;;;;;;;;;5091688;28;19924;-67
2021/04/30 00:51:39;;;;;;;;;;;;;;;;;;5087349;28;19963;-68
2021/04/30 00:54:06;;;;;;;;;;;;;;;;;;5085674;28;19966;-67
2021/04/30 00:56:32;;;;;;;;;;;;;;;;;;5087659;28;19947;-67
2021/04/30 00:59:00;;;;;;;;;;;;;;;;;;5080871;28;20134;-67
2021/04/30 01:01:27;;;;;;;;;;;;;;;;;;5082929;28;19928;-66
2021/04/30 01:03:53;;;;;;;;;;;;;;;;;;5081462;28;20337;-66
2021/04/30 01:06:20;;;;;;;;;;;;;;;;;;5079753;28;19975;-65
2021/04/30 01:08:46;;;;;;;;;;;;;;;;;;5091576;28;19967;-66
2021/04/30 01:11:13;;;;;;;;;;;;;;;;;;5084190;28;20268;-67
2021/04/30 01:13:39;;;;;;;;;;;;;;;;;;5087525;28;19957;-66
2021/04/30 01:16:06;;;;;;;;;;;;;;;;;;5083553;28;19953;-68
2021/04/30 01:18:32;;;;;;;;;;;;;;;;;;5079332;28;20063;-67
2021/04/30 01:20:59;;;;;;;;;;;;;;;;;;5082431;28;19936;-68
2021/04/30 01:23:25;;;;;;;;;;;;;;;;;;5084587;28;19954;-67
2021/04/30 01:25:52;;;;;;;;;;;;;;;;;;5083620;28;19954;-66
2021/04/30 01:28:18;;;;;;;;;;;;;;;;;;5086777;28;20325;-66
2021/04/30 01:30:45;;;;;;;;;;;;;;;;;;5087455;28;20392;-70
2021/04/30 01:33:11;;;;;;;;;;;;;;;;;;5087751;28;20023;-69
2021/04/30 01:35:38;;;;;;;;;;;;;;;;;;5084859;28;19970;-66
2021/04/30 01:38:05;;;;;;;;;;;;;;;;;;5088182;28;19981;-66
2021/04/30 01:40:31;;;;;;;;;;;;;;;;;;5085554;28;19969;-66
2021/04/30 01:42:58;;;;;;;;;;;;;;;;;;5088830;28;19924;-66
2021/04/30 01:45:24;;;;;;;;;;;;;;;;;;5080597;28;19924;-66
2021/04/30 01:47:51;;;;;;;;;;;;;;;;;;5087911;28;20314;-66
2021/04/30 01:50:20;;;;;;;;;;;;;;;;;;5086187;28;20387;-66
2021/04/30 01:52:47;;;;;;;;;;;;;;;;;;5084860;28;20022;-65
2021/04/30 01:55:13;;;;;;;;;;;;;;;;;;5083079;28;19930;-67
2021/04/30 01:57:40;;;;;;;;;;;;;;;;;;5077432;28;20355;-67
2021/04/30 02:00:06;;;;;;;;;;;;;;;;;;5089176;28;20023;-70
2021/04/30 02:02:33;;;;;;;;;;;;;;;;;;5083880;28;19929;-66
2021/04/30 02:04:59;;;;;;;;;;;;;;;;;;5089354;28;20638;-66
2021/04/30 02:07:26;;;;;;;;;;;;;;;;;;5084899;28;19943;-67
2021/04/30 02:09:52;;;;;;;;;;;;;;;;;;5086400;28;19943;-66
2021/04/30 02:12:19;;;;;;;;;;;;;;;;;;5079528;28;20349;-67
2021/04/30 02:14:45;;;;;;;;;;;;;;;;;;5087005;28;19930;-66
2021/04/30 02:17:13;;;;;;;;;;;;;;;;;;5089842;28;19999;-67
2021/04/30 02:19:39;;;;;;;;;;;;;;;;;;5086912;28;20177;-66
2021/04/30 02:22:06;;;;;;;;;;;;;;;;;;5080195;28;19975;-65
2021/04/30 02:24:32;;;;;;;;;;;;;;;;;;5078508;28;19928;-66
2021/04/30 02:26:59;;;;;;;;;;;;;;;;;;5086530;28;19947;-66
2021/04/30 02:29:25;;;;;;;;;;;;;;;;;;5082977;28;19932;-67
2021/04/30 02:31:52;;;;;;;;;;;;;;;;;;5085937;28;19932;-66
2021/04/30 02:34:18;;;;;;;;;;;;;;;;;;5085131;28;20038;-68
2021/04/30 02:36:45;;;;;;;;;;;;;;;;;;5079334;28;19960;-66
2021/04/30 02:39:11;;;;;;;;;;;;;;;;;;5085182;28;19925;-67
2021/04/30 02:41:38;;;;;;;;;;;;;;;;;;5082332;28;20465;-66
2021/04/30 02:44:05;;;;;;;;;;;;;;;;;;5090176;28;19924;-66
2021/04/30 02:46:31;;;;;;;;;;;;;;;;;;5083461;28;19943;-67
2021/04/30 02:49:02;;;;;;;;;;;;;;;;;;5087838;28;19964;-70
2021/04/30 02:51:29;;;;;;;;;;;;;;;;;;5088881;28;19924;-66
2021/04/30 02:53:55;;;;;;;;;;;;;;;;;;5080875;28;19932;-67
2021/04/30 02:56:22;;;;;;;;;;;;;;;;;;5082741;28;19992;-68
2021/04/30 02:58:53;;;;;;;;;;;;;;;;;;5088379;28;19931;-66
2021/04/30 03:01:19;;;;;;;;;;;;;;;;;;5086517;28;19928;-66
2021/04/30 03:03:46;;;;;;;;;;;;;;;;;;5081996;28;20027;-67
2021/04/30 03:06:12;;;;;;;;;;;;;;;;;;5081672;28;20368;-69
2021/04/30 03:08:39;;;;;;;;;;;;;;;;;;5087835;28;19935;-67
2021/04/30 03:11:06;;;;;;;;;;;;;;;;;;5085672;28;20272;-67
2021/04/30 03:13:32;;;;;;;;;;;;;;;;;;5089794;28;19931;-67
2021/04/30 03:15:59;;;;;;;;;;;;;;;;;;5088208;28;19928;-67
2021/04/30 03:18:25;;;;;;;;;;;;;;;;;;5090206;28;20292;-66
2021/04/30 03:20:52;;;;;;;;;;;;;;;;;;5089219;28;19928;-66
2021/04/30 03:23:18;;;;;;;;;;;;;;;;;;5089441;28;19932;-67
2021/04/30 03:25:44;;;;;;;;;;;;;;;;;;5082256;28;20002;-66
2021/04/30 03:28:11;;;;;;;;;;;;;;;;;;5087207;28;20469;-66
2021/04/30 03:30:37;;;;;;;;;;;;;;;;;;5084603;28;19969;-66
2021/04/30 03:33:04;;;;;;;;;;;;;;;;;;5079386;28;20392;-66
2021/04/30 03:35:30;;;;;;;;;;;;;;;;;;5097871;28;19924;-67
2021/04/30 03:37:57;;;;;;;;;;;;;;;;;;5095257;28;19939;-67
2021/04/30 03:40:23;;;;;;;;;;;;;;;;;;5097917;28;20058;-70
2021/04/30 03:42:50;;;;;;;;;;;;;;;;;;5086734;28;20027;-68
2021/04/30 03:45:16;;;;;;;;;;;;;;;;;;5090094;28;19940;-67
2021/04/30 03:47:43;;;;;;;;;;;;;;;;;;5097906;28;19975;-66
2021/04/30 03:50:09;;;;;;;;;;;;;;;;;;5089913;28;20003;-67
2021/04/30 03:52:36;;;;;;;;;;;;;;;;;;5090629;28;20381;-66
2021/04/30 03:55:02;;;;;;;;;;;;;;;;;;5083198;28;19931;-70
2021/04/30 03:57:29;;;;;;;;;;;;;;;;;;5089127;28;19975;-66
2021/04/30 03:59:55;;;;;;;;;;;;;;;;;;5083775;28;20280;-69
2021/04/30 04:02:22;;;;;;;;;;;;;;;;;;5082317;28;19924;-68
2021/04/30 04:04:48;;;;;;;;;;;;;;;;;;5088952;28;19946;-68
2021/04/30 04:07:15;;;;;;;;;;;;;;;;;;5077277;28;19928;-68
2021/04/30 04:09:41;;;;;;;;;;;;;;;;;;5087207;28;20037;-66
2021/04/30 04:12:08;;;;;;;;;;;;;;;;;;5078595;28;20023;-66
2021/04/30 04:14:35;;;;;;;;;;;;;;;;;;5085045;28;20339;-67
2021/04/30 04:17:01;;;;;;;;;;;;;;;;;;5090394;28;20548;-67
2021/04/30 04:19:28;;;;;;;;;;;;;;;;;;5087607;28;19925;-65
2021/04/30 04:21:54;;;;;;;;;;;;;;;;;;5099212;22;20016;-60
2021/04/30 04:24:21;;;;;;;;;;;;;;;;;;5068189;28;20060;-62
2021/04/30 04:26:47;;;;;;;;;;;;;;;;;;5061164;28;19932;-62
2021/04/30 04:29:14;;;;;;;;;;;;;;;;;;5067865;28;19936;-63
2021/04/30 04:31:40;;;;;;;;;;;;;;;;;;5057855;28;20432;-63
2021/04/30 04:34:07;;;;;;;;;;;;;;;;;;5064219;28;20049;-61
2021/04/30 04:36:33;;;;;;;;;;;;;;;;;;5062262;28;19935;-61
2021/04/30 04:39:00;;;;;;;;;;;;;;;;;;5070703;28;20387;-62
2021/04/30 04:41:28;;;;;;;;;;;;;;;;;;5069090;28;19924;-63
2021/04/30 04:43:55;;;;;;;;;;;;;;;;;;5062210;28;19936;-64
2021/04/30 04:46:21;;;;;;;;;;;;;;;;;;5061833;28;19925;-63
2021/04/30 04:48:48;;;;;;;;;;;;;;;;;;5065788;28;19978;-63
2021/04/30 04:51:14;;;;;;;;;;;;;;;;;;5065221;28;19924;-63
2021/04/30 04:53:41;;;;;;;;;;;;;;;;;;5066817;28;20056;-65
2021/04/30 04:56:07;;;;;;;;;;;;;;;;;;5057950;28;19980;-64
2021/04/30 04:58:34;;;;;;;;;;;;;;;;;;5064115;28;19925;-63
2021/04/30 05:01:00;;;;;;;;;;;;;;;;;;5058274;28;20028;-65
2021/04/30 05:03:27;;;;;;;;;;;;;;;;;;5062041;28;19943;-65
2021/04/30 05:05:54;;;;;;;;;;;;;;;;;;5060169;28;19925;-65
2021/04/30 05:08:20;;;;;;;;;;;;;;;;;;5063799;28;19924;-63
2021/04/30 05:10:47;;;;;;;;;;;;;;;;;;5067648;28;19925;-64
2021/04/30 05:13:13;;;;;;;;;;;;;;;;;;5062002;28;19929;-63
2021/04/30 05:15:40;;;;;;;;;;;;;;;;;;5063233;28;19982;-63
2021/04/30 05:18:06;;;;;;;;;;;;;;;;;;5063911;28;19956;-64
2021/04/30 05:20:33;;;;;;;;;;;;;;;;;;5069919;28;19929;-62
2021/04/30 05:22:59;;;;;;;;;;;;;;;;;;5058299;28;19931;-60
2021/04/30 05:25:26;;;;;;;;;;;;;;;;;;5062906;28;20413;-62
2021/04/30 05:27:52;;;;;;;;;;;;;;;;;;5061822;28;19928;-59
2021/04/30 05:30:19;;;;;;;;;;;;;;;;;;5058759;28;19939;-64
2021/04/30 05:32:45;;;;;;;;;;;;;;;;;;5061367;28;20291;-60
2021/04/30 05:35:12;;;;;;;;;;;;;;;;;;5060736;28;19935;-61
2021/04/30 05:37:39;;;;;;;;;;;;;;;;;;5063795;28;19935;-62
2021/04/30 05:40:05;;;;;;;;;;;;;;;;;;5059684;28;19947;-62
2021/04/30 05:42:32;;;;;;;;;;;;;;;;;;5053394;28;19932;-60
2021/04/30 05:45:00;;;;;;;;;;;;;;;;;;5060566;28;20355;-63
2021/04/30 05:47:26;;;;;;;;;;;;;;;;;;5061758;28;19924;-63
2021/04/30 05:49:53;;;;;;;;;;;;;;;;;;5066645;28;19948;-63
2021/04/30 05:52:19;;;;;;;;;;;;;;;;;;5060485;28;19931;-60
2021/04/30 05:54:45;;;;;;;;;;;;;;;;;;5067910;28;19924;-61
2021/04/30 05:57:12;;;;;;;;;;;;;;;;;;5065386;28;20354;-62
2021/04/30 06:24:18;;;;;;;;;;;;;;;;;;5077391;22;20394;-62
2021/04/30 06:26:44;;;;;;;;;;;;;;;;;;5065876;28;19925;-63
2021/04/30 06:29:10;;;;;;;;;;;;;;;;;;5063757;28;19924;-63
2021/04/30 06:31:37;;;;;;;;;;;;;;;;;;5062865;28;19932;-63
2021/04/30 06:34:04;;;;;;;;;;;;;;;;;;5066523;28;20004;-62
2021/04/30 06:36:30;;;;;;;;;;;;;;;;;;5061809;28;19963;-63
2021/04/30 06:38:57;;;;;;;;;;;;;;;;;;5066293;28;19931;-62
2021/04/30 06:41:23;;;;;;;;;;;;;;;;;;5064646;28;19932;-63
2021/04/30 06:43:49;;;;;;;;;;;;;;;;;;5061953;28;19924;-61
2021/04/30 06:46:16;;;;;;;;;;;;;;;;;;5063566;28;19928;-62
2021/04/30 06:48:43;;;;;;;;;;;;;;;;;;5068113;28;20338;-63
2021/04/30 06:51:09;;;;;;;;;;;;;;;;;;5068472;28;19924;-63
2021/04/30 06:53:35;;;;;;;;;;;;;;;;;;5059672;28;20423;-63
2021/04/30 06:56:03;;;;;;;;;;;;;;;;;;5063083;28;19977;-60
2021/04/30 06:58:30;;;;;;;;;;;;;;;;;;5063993;28;19991;-63
2021/04/30 07:00:56;;;;;;;;;;;;;;;;;;5062848;28;19940;-64
2021/04/30 07:03:23;;;;;;;;;;;;;;;;;;5057956;28;19924;-65
2021/04/30 07:05:49;;;;;;;;;;;;;;;;;;5059042;28;19933;-64
2021/04/30 07:08:16;;;;;;;;;;;;;;;;;;5070805;28;20292;-63
2021/04/30 07:10:42;;;;;;;;;;;;;;;;;;5068531;28;20031;-63
2021/04/30 07:13:09;;;;;;;;;;;;;;;;;;5061466;28;20265;-62
2021/04/30 07:15:35;;;;;;;;;;;;;;;;;;5066400;28;19928;-63
2021/04/30 07:18:02;;;;;;;;;;;;;;;;;;5068288;28;19925;-63
2021/04/30 07:20:30;;;;;;;;;;;;;;;;;;5071118;28;20295;-62
2021/04/30 07:22:56;;;;;;;;;;;;;;;;;;5067051;28;19929;-63
2021/04/30 07:25:23;;;;;;;;;;;;;;;;;;5070955;28;19925;-63
2021/04/30 07:27:49;;;;;;;;;;;;;;;;;;5066993;28;19931;-64
2021/04/30 07:30:16;;;;;;;;;;;;;;;;;;5068254;28;20273;-64
2021/04/30 07:38:08;;;;;;;;;;;;;;;;;;5004384;28;19924;-62
2021/04/30 07:40:35;;;;;;;;;;;;;;;;;;5010722;28;19935;-62
2021/04/30 07:43:02;;;;;;;;;;;;;;;;;;5068786;28;20014;-64
2021/04/30 07:45:28;;;;;;;;;;;;;;;;;;5069267;28;19938;-62
2021/04/30 07:47:55;;;;;;;;;;;;;;;;;;5068216;28;20385;-63
2021/04/30 07:50:21;;;;;;;;;;;;;;;;;;5066125;28;19924;-61
2021/04/30 07:52:48;;;;;;;;;;;;;;;;;;5064459;28;20307;-62
2021/04/30 07:55:14;;;;;;;;;;;;;;;;;;5069547;28;20028;-64
2021/04/30 07:57:41;;;;;;;;;;;;;;;;;;5067209;28;19932;-63
2021/04/30 08:00:07;;;;;;;;;;;;;;;;;;5064882;28;19975;-62
2021/04/30 08:02:34;;;;;;;;;;;;;;;;;;5065587;28;19988;-63
2021/04/30 08:05:00;;;;;;;;;;;;;;;;;;5068355;28;20208;-62
2021/04/30 08:07:27;;;;;;;;;;;;;;;;;;5067088;28;19981;-63
2021/04/30 08:09:55;;;;;;;;;;;;;;;;;;5071363;28;19932;-63
2021/04/30 08:12:21;;;;;;;;;;;;;;;;;;5065259;28;19924;-62
2021/04/30 08:14:48;;;;;;;;;;;;;;;;;;5065607;28;19928;-65
2021/04/30 08:17:14;;;;;;;;;;;;;;;;;;5066331;28;19977;-66
2021/04/30 08:19:41;;;;;;;;;;;;;;;;;;5064473;28;19932;-66
2021/04/30 08:22:07;;;;;;;;;;;;;;;;;;5062165;28;19994;-67
2021/04/30 08:24:34;;;;;;;;;;;;;;;;;;5061439;28;19924;-65
2021/04/30 08:27:00;;;;;;;;;;;;;;;;;;5064389;28;19975;-66
2021/04/30 08:29:27;;;;;;;;;;;;;;;;;;5063007;28;19968;-66
2021/04/30 08:31:53;;;;;;;;;;;;;;;;;;5064465;28;20436;-66
2021/04/30 08:34:20;;;;;;;;;;;;;;;;;;5064075;28;19924;-66
2021/04/30 08:36:46;;;;;;;;;;;;;;;;;;5064321;28;19928;-66
2021/04/30 08:39:13;;;;;;;;;;;;;;;;;;5068798;28;20024;-66
2021/04/30 08:41:40;;;;;;;;;;;;;;;;;;5065303;28;19936;-66
2021/04/30 08:44:06;;;;;;;;;;;;;;;;;;5066705;28;19973;-66
2021/04/30 08:46:34;;;;;;;;;;;;;;;;;;5065209;28;19924;-66
2021/04/30 08:49:01;;;;;;;;;;;;;;;;;;5061702;28;19935;-66
2021/04/30 08:51:27;;;;;;;;;;;;;;;;;;5064445;28;19978;-66
2021/04/30 08:53:54;;;;;;;;;;;;;;;;;;5058705;28;20028;-67
2021/04/30 08:56:20;;;;;;;;;;;;;;;;;;5068867;28;19932;-66
2021/04/30 08:58:47;;;;;;;;;;;;;;;;;;5068030;28;20408;-66
2021/04/30 09:01:13;;;;;;;;;;;;;;;;;;5067271;28;19970;-66
2021/04/30 09:03:40;;;;;;;;;;;;;;;;;;5058697;28;19950;-66
2021/04/30 09:06:07;;;;;;;;;;;;;;;;;;5063576;28;20295;-66
2021/04/30 09:08:33;;;;;;;;;;;;;;;;;;5063030;28;19932;-66
2021/04/30 09:11:00;;;;;;;;;;;;;;;;;;5064141;28;20441;-66
2021/04/30 09:13:26;;;;;;;;;;;;;;;;;;5060483;28;19969;-66
2021/04/30 09:15:53;;;;;;;;;;;;;;;;;;5064830;28;20017;-66
2021/04/30 09:18:19;;;;;;;;;;;;;;;;;;5065477;28;19924;-66
2021/04/30 09:20:47;;;;;;;;;;;;;;;;;;5068942;28;19928;-66
2021/04/30 09:23:14;;;;;;;;;;;;;;;;;;5063700;28;19974;-66
2021/04/30 09:25:40;;;;;;;;;;;;;;;;;;5066068;28;19989;-66
2021/04/30 09:28:07;;;;;;;;;;;;;;;;;;5063695;28;19925;-67
2021/04/30 09:30:33;;;;;;;;;;;;;;;;;;5066709;28;19930;-67
2021/04/30 09:33:00;;;;;;;;;;;;;;;;;;5064160;28;20365;-67
2021/04/30 09:35:26;;;;;;;;;;;;;;;;;;5064614;28;19939;-66
2021/04/30 09:37:53;;;;;;;;;;;;;;;;;;5064158;28;19928;-66
2021/04/30 09:40:19;;;;;;;;;;;;;;;;;;5062228;28;20015;-66
2021/04/30 09:42:46;;;;;;;;;;;;;;;;;;5063444;28;19929;-66
2021/04/30 09:45:12;;;;;;;;;;;;;;;;;;5062098;28;20428;-66
2021/04/30 09:47:39;;;;;;;;;;;;;;;;;;5065192;28;19929;-66
2021/04/30 09:50:06;;;;;;;;;;;;;;;;;;5062575;28;19925;-66
2021/04/30 09:52:32;;;;;;;;;;;;;;;;;;5063334;28;19924;-66
2021/04/30 09:55:01;;;;;;;;;;;;;;;;;;5063426;28;19925;-66
2021/04/30 09:57:28;;;;;;;;;;;;;;;;;;5062477;28;19940;-65
2021/04/30 09:59:54;;;;;;;;;;;;;;;;;;5063443;28;20019;-66
2021/04/30 10:02:21;;;;;;;;;;;;;;;;;;5060824;28;20076;-66
2021/04/30 10:04:47;;;;;;;;;;;;;;;;;;5055902;28;19932;-66
2021/04/30 10:07:14;;;;;;;;;;;;;;;;;;5066600;28;21024;-65
2021/04/30 10:09:40;;;;;;;;;;;;;;;;;;5063175;28;19954;-66
2021/04/30 10:12:07;;;;;;;;;;;;;;;;;;5059134;28;20020;-65
2021/04/30 10:14:33;;;;;;;;;;;;;;;;;;5062608;28;19925;-65
2021/04/30 10:17:13;;;;;;;;;;;;;;;;;;5064974;28;19961;-65
2021/04/30 10:19:40;;;;;;;;;;;;;;;;;;5061918;28;19978;-66
2021/04/30 10:22:06;;;;;;;;;;;;;;;;;;5062097;28;19924;-66
2021/04/30 10:24:33;;;;;;;;;;;;;;;;;;5064303;28;20023;-65
2021/04/30 10:26:59;;;;;;;;;;;;;;;;;;5063915;28;19970;-65
2021/04/30 10:29:26;;;;;;;;;;;;;;;;;;5062247;28;20288;-65
2021/04/30 10:31:52;;;;;;;;;;;;;;;;;;5063054;28;19924;-65
2021/04/30 10:34:19;;;;;;;;;;;;;;;;;;5063687;28;19970;-65
2021/04/30 10:36:46;;;;;;;;;;;;;;;;;;5063021;28;20328;-66
2021/04/30 10:39:12;;;;;;;;;;;;;;;;;;5064038;28;19933;-66
2021/04/30 10:41:39;;;;;;;;;;;;;;;;;;5054349;28;19925;-66
2021/04/30 10:44:05;;;;;;;;;;;;;;;;;;5060254;28;19966;-70
2021/04/30 10:46:32;;;;;;;;;;;;;;;;;;5063427;28;19933;-65
2021/04/30 10:48:58;;;;;;;;;;;;;;;;;;5064504;28;20597;-66
2021/04/30 10:51:25;;;;;;;;;;;;;;;;;;5063178;28;20016;-66
2021/04/30 10:53:51;;;;;;;;;;;;;;;;;;5039064;28;19924;-66
2021/04/30 10:56:18;;;;;;;;;;;;;;;;;;5064450;28;19984;-65
2021/04/30 10:58:44;;;;;;;;;;;;;;;;;;5059046;28;19931;-65
2021/04/30 11:01:11;;;;;;;;;;;;;;;;;;5061874;28;20364;-66
2021/04/30 11:03:37;;;;;;;;;;;;;;;;;;5062533;28;19929;-66
2021/04/30 11:06:05;;;;;;;;;;;;;;;;;;5060151;28;19931;-67
2021/04/30 11:08:31;;;;;;;;;;;;;;;;;;5064114;28;19929;-67
2021/04/30 11:10:58;;;;;;;;;;;;;;;;;;5065651;28;20005;-67
2021/04/30 11:13:24;;;;;;;;;;;;;;;;;;5062998;28;19924;-65
2021/04/30 11:15:51;;;;;;;;;;;;;;;;;;5065785;28;20023;-66
2021/04/30 11:18:19;;;;;;;;;;;;;;;;;;5066025;28;19974;-66
2021/04/30 11:20:45;;;;;;;;;;;;;;;;;;5063865;28;19971;-67
2021/04/30 11:23:12;;;;;;;;;;;;;;;;;;5054088;28;20320;-65
2021/04/30 11:25:38;;;;;;;;;;;;;;;;;;5062241;28;20418;-66
2021/04/30 11:28:06;;;;;;;;;;;;;;;;;;5056815;28;19929;-66
2021/04/30 11:30:33;;;;;;;;;;;;;;;;;;5062641;28;20358;-66
2021/04/30 11:32:59;;;;;;;;;;;;;;;;;;5058987;28;19925;-65
2021/04/30 11:35:26;;;;;;;;;;;;;;;;;;5062617;28;19924;-66
2021/04/30 11:37:52;;;;;;;;;;;;;;;;;;5056129;28;19929;-65
2021/04/30 11:40:20;;;;;;;;;;;;;;;;;;5063164;28;20182;-66
2021/04/30 11:42:46;;;;;;;;;;;;;;;;;;5060974;28;20027;-66
2021/04/30 11:45:13;;;;;;;;;;;;;;;;;;5065861;28;20422;-67
2021/04/30 11:47:39;;;;;;;;;;;;;;;;;;5062504;28;19982;-65
2021/04/30 11:50:06;;;;;;;;;;;;;;;;;;5062096;28;19924;-66
2021/04/30 11:52:34;;;;;;;;;;;;;;;;;;5060205;28;20077;-67
2021/04/30 11:55:03;;;;;;;;;;;;;;;;;;5068071;28;19924;-68
2021/04/30 11:57:30;;;;;;;;;;;;;;;;;;5064991;28;20414;-66
2021/04/30 11:59:57;;;;;;;;;;;;;;;;;;5063590;28;20027;-66
2021/04/30 12:02:23;;;;;;;;;;;;;;;;;;5058971;28;19956;-66
2021/04/30 12:04:50;;;;;;;;;;;;;;;;;;5067280;28;20359;-66
2021/04/30 12:07:19;;;;;;;;;;;;;;;;;;5063387;28;20027;-67
2021/04/30 12:09:46;;;;;;;;;;;;;;;;;;5067838;28;20340;-65
2021/04/30 12:12:12;;;;;;;;;;;;;;;;;;5061685;28;19933;-66
2021/04/30 12:14:39;;;;;;;;;;;;;;;;;;5064863;28;19959;-66
2021/04/30 12:17:05;;;;;;;;;;;;;;;;;;5067285;28;19925;-66
2021/04/30 12:19:32;;;;;;;;;;;;;;;;;;5063556;28;20075;-67
2021/04/30 12:21:59;;;;;;;;;;;;;;;;;;5065162;28;19980;-66
2021/04/30 12:24:25;;;;;;;;;;;;;;;;;;5095422;22;20427;-67
2021/04/30 12:26:52;;;;;;;;;;;;;;;;;;5087814;28;20007;-68
2021/04/30 12:29:19;;;;;;;;;;;;;;;;;;5087134;28;19967;-69
2021/04/30 12:31:45;;;;;;;;;;;;;;;;;;5083871;28;20396;-68
2021/04/30 12:34:12;;;;;;;;;;;;;;;;;;5088950;28;19989;-68
2021/04/30 12:36:38;;;;;;;;;;;;;;;;;;5084843;28;19928;-69
2021/04/30 12:39:05;;;;;;;;;;;;;;;;;;5086329;28;19970;-71
2021/04/30 12:41:32;;;;;;;;;;;;;;;;;;5087388;28;19924;-70
2021/04/30 12:43:58;;;;;;;;;;;;;;;;;;5079822;28;20022;-69
2021/04/30 12:46:25;;;;;;;;;;;;;;;;;;5085229;28;19932;-68
2021/04/30 12:48:51;;;;;;;;;;;;;;;;;;5085653;28;19924;-67
2021/04/30 12:51:18;;;;;;;;;;;;;;;;;;5088599;28;20014;-69
2021/04/30 12:53:44;;;;;;;;;;;;;;;;;;5080310;28;20325;-69
2021/04/30 12:56:11;;;;;;;;;;;;;;;;;;5088182;28;20015;-68
2021/04/30 12:58:40;;;;;;;;;;;;;;;;;;5081467;28;20288;-68
2021/04/30 13:01:07;;;;;;;;;;;;;;;;;;5080631;28;19932;-67
2021/04/30 13:03:33;;;;;;;;;;;;;;;;;;5077972;28;20005;-68
2021/04/30 13:06:00;;;;;;;;;;;;;;;;;;5085764;28;20005;-69
2021/04/30 13:08:26;;;;;;;;;;;;;;;;;;5083209;28;19974;-68
2021/04/30 13:10:55;;;;;;;;;;;;;;;;;;5086426;28;19968;-68
2021/04/30 13:13:21;;;;;;;;;;;;;;;;;;5083868;28;19962;-67
2021/04/30 13:15:48;;;;;;;;;;;;;;;;;;5084113;28;20391;-69
2021/04/30 13:18:16;;;;;;;;;;;;;;;;;;5080974;28;20227;-68
2021/04/30 13:20:42;;;;;;;;;;;;;;;;;;5085594;28;19923;-68
2021/04/30 13:23:09;;;;;;;;;;;;;;;;;;5085112;28;20399;-67
2021/04/30 13:25:36;;;;;;;;;;;;;;;;;;5089376;28;19924;-68
2021/04/30 13:28:03;;;;;;;;;;;;;;;;;;5083366;28;19924;-67
2021/04/30 13:30:29;;;;;;;;;;;;;;;;;;5084325;28;20022;-69
2021/04/30 13:32:56;;;;;;;;;;;;;;;;;;5080118;28;19925;-67
2021/04/30 13:35:22;;;;;;;;;;;;;;;;;;5084713;28;19924;-69
2021/04/30 13:37:54;;;;;;;;;;;;;;;;;;5083632;28;19924;-68
2021/04/30 13:40:21;;;;;;;;;;;;;;;;;;5082983;28;19942;-67
2021/04/30 13:42:48;;;;;;;;;;;;;;;;;;5080195;28;20011;-68
2021/04/30 13:45:14;;;;;;;;;;;;;;;;;;5083550;28;19924;-67
2021/04/30 13:47:41;;;;;;;;;;;;;;;;;;5089176;28;19924;-69
2021/04/30 13:50:10;;;;;;;;;;;;;;;;;;5085860;28;19932;-68
2021/04/30 13:52:36;;;;;;;;;;;;;;;;;;5086426;28;20011;-68
2021/04/30 13:55:03;;;;;;;;;;;;;;;;;;5087985;28;19924;-66
2021/04/30 13:57:29;;;;;;;;;;;;;;;;;;5085169;28;20410;-67
2021/04/30 13:59:56;;;;;;;;;;;;;;;;;;5086624;28;19964;-66
2021/04/30 14:02:22;;;;;;;;;;;;;;;;;;5087138;28;19924;-68
2021/04/30 14:04:49;;;;;;;;;;;;;;;;;;5088357;28;19958;-67
2021/04/30 14:07:15;;;;;;;;;;;;;;;;;;5086519;28;19936;-68
2021/04/30 14:09:42;;;;;;;;;;;;;;;;;;5084630;28;20304;-66
2021/04/30 14:12:09;;;;;;;;;;;;;;;;;;5084721;28;20023;-66
2021/04/30 14:14:37;;;;;;;;;;;;;;;;;;5085043;28;19925;-67
2021/04/30 14:17:04;;;;;;;;;;;;;;;;;;5087076;28;20439;-67
2021/04/30 14:19:30;;;;;;;;;;;;;;;;;;5084536;28;19924;-67
2021/04/30 14:21:57;;;;;;;;;;;;;;;;;;5084190;28;20472;-67
2021/04/30 14:24:23;;;;;;;;;;;;;;;;;;5080734;28;19932;-68
2021/04/30 14:26:51;;;;;;;;;;;;;;;;;;5086868;28;20007;-69
2021/04/30 14:29:18;;;;;;;;;;;;;;;;;;5079731;28;19955;-66
2021/04/30 14:31:44;;;;;;;;;;;;;;;;;;5079804;28;20007;-66
2021/04/30 14:34:12;;;;;;;;;;;;;;;;;;5082059;28;20295;-66
2021/04/30 14:36:40;;;;;;;;;;;;;;;;;;5083507;28;20030;-67
2021/04/30 14:39:06;;;;;;;;;;;;;;;;;;5084024;28;20011;-67
2021/04/30 14:41:33;;;;;;;;;;;;;;;;;;5083465;28;20022;-67
2021/04/30 14:43:59;;;;;;;;;;;;;;;;;;5084154;28;20047;-66
2021/04/30 14:46:26;;;;;;;;;;;;;;;;;;5083514;28;19974;-66
2021/04/30 14:48:52;;;;;;;;;;;;;;;;;;5082565;28;20403;-67
2021/04/30 14:51:19;;;;;;;;;;;;;;;;;;5083153;28;19935;-66
2021/04/30 14:53:45;;;;;;;;;;;;;;;;;;5079542;28;19931;-69
2021/04/30 14:56:12;;;;;;;;;;;;;;;;;;5083737;28;19924;-67
2021/04/30 14:58:38;;;;;;;;;;;;;;;;;;5081076;28;20020;-68
2021/04/30 15:01:05;;;;;;;;;;;;;;;;;;5083323;28;20340;-69
2021/04/30 15:03:31;;;;;;;;;;;;;;;;;;5086907;28;19925;-66
2021/04/30 15:05:58;;;;;;;;;;;;;;;;;;5083760;28;19974;-69
2021/04/30 15:08:26;;;;;;;;;;;;;;;;;;5085131;28;19925;-67
2021/04/30 15:10:56;;;;;;;;;;;;;;;;;;5083976;28;19924;-70
2021/04/30 15:13:22;;;;;;;;;;;;;;;;;;5085920;28;19924;-67
2021/04/30 15:15:49;;;;;;;;;;;;;;;;;;5082157;28;19936;-66
2021/04/30 15:18:15;;;;;;;;;;;;;;;;;;5085172;28;19924;-67
2021/04/30 15:20:42;;;;;;;;;;;;;;;;;;5085208;28;19931;-68
2021/04/30 15:23:08;;;;;;;;;;;;;;;;;;5087652;28;19924;-69
2021/04/30 15:25:36;;;;;;;;;;;;;;;;;;5096711;28;19935;-67
2021/04/30 15:28:03;;;;;;;;;;;;;;;;;;5095913;28;20194;-67
2021/04/30 15:30:29;;;;;;;;;;;;;;;;;;5088206;28;19925;-68
2021/04/30 15:32:56;;;;;;;;;;;;;;;;;;5097965;28;19963;-67
2021/04/30 15:35:22;;;;;;;;;;;;;;;;;;5098892;28;19995;-65
2021/04/30 15:37:49;;;;;;;;;;;;;;;;;;5099006;28;19930;-64
2021/04/30 15:40:16;;;;;;;;;;;;;;;;;;5096236;28;19929;-64
2021/04/30 15:42:42;;;;;;;;;;;;;;;;;;5091524;28;20343;-67
2021/04/30 15:45:09;;;;;;;;;;;;;;;;;;5092124;28;19931;-68
2021/04/30 15:47:35;;;;;;;;;;;;;;;;;;5093476;28;19924;-65
2021/04/30 15:50:02;;;;;;;;;;;;;;;;;;5086227;28;20043;-65
2021/04/30 15:52:28;;;;;;;;;;;;;;;;;;5085691;28;20415;-67
2021/04/30 15:54:55;;;;;;;;;;;;;;;;;;5087766;28;19935;-66
2021/04/30 15:57:22;;;;;;;;;;;;;;;;;;5086125;28;19928;-72
2021/04/30 15:59:48;;;;;;;;;;;;;;;;;;5087562;28;20003;-68
2021/04/30 16:02:15;;;;;;;;;;;;;;;;;;5083503;28;19978;-66
2021/04/30 16:04:42;;;;;;;;;;;;;;;;;;5084552;28;20022;-67
2021/04/30 16:07:08;;;;;;;;;;;;;;;;;;5084350;28;19939;-66
2021/04/30 16:09:36;;;;;;;;;;;;;;;;;;5085762;28;19962;-68
2021/04/30 16:12:03;;;;;;;;;;;;;;;;;;5082845;28;19924;-68
2021/04/30 16:14:29;;;;;;;;;;;;;;;;;;5086866;28;19932;-66
2021/04/30 16:16:56;;;;;;;;;;;;;;;;;;5086453;28;20331;-67
2021/04/30 16:19:22;;;;;;;;;;;;;;;;;;5086218;28;19928;-66
2021/04/30 16:21:49;;;;;;;;;;;;;;;;;;5085605;28;19939;-65
2021/04/30 16:24:15;;;;;;;;;;;;;;;;;;5084732;28;19924;-68
2021/04/30 16:26:42;;;;;;;;;;;;;;;;;;5085980;28;19930;-66
2021/04/30 16:29:08;;;;;;;;;;;;;;;;;;5084584;28;19924;-67
2021/04/30 16:31:35;;;;;;;;;;;;;;;;;;5085223;28;20402;-67
2021/04/30 16:34:02;;;;;;;;;;;;;;;;;;5086104;28;20024;-69
2021/04/30 16:36:29;;;;;;;;;;;;;;;;;;5086300;28;19924;-66
2021/04/30 16:38:55;;;;;;;;;;;;;;;;;;5087552;28;19924;-68
2021/04/30 16:41:22;;;;;;;;;;;;;;;;;;5085227;28;19998;-68
2021/04/30 16:43:48;;;;;;;;;;;;;;;;;;5085379;28;20475;-66
2021/04/30 16:46:17;;;;;;;;;;;;;;;;;;5083002;28;19978;-66
2021/04/30 16:48:45;;;;;;;;;;;;;;;;;;5086654;28;19931;-69
2021/04/30 16:51:11;;;;;;;;;;;;;;;;;;5086493;28;19981;-67
2021/04/30 16:53:38;;;;;;;;;;;;;;;;;;5082498;28;20509;-67
2021/04/30 16:56:04;;;;;;;;;;;;;;;;;;5085123;28;19928;-66
2021/04/30 16:58:31;;;;;;;;;;;;;;;;;;5086518;28;19924;-66
2021/04/30 17:00:57;;;;;;;;;;;;;;;;;;5080797;28;19924;-67
2021/04/30 17:03:24;;;;;;;;;;;;;;;;;;5087687;28;19974;-66
2021/04/30 17:05:52;;;;;;;;;;;;;;;;;;5085954;28;19955;-66
2021/04/30 17:08:19;;;;;;;;;;;;;;;;;;5086416;28;20380;-65
2021/04/30 17:10:45;;;;;;;;;;;;;;;;;;5085594;28;19976;-65